Accueil
METAR-TAF:

METAR-TAF

Aéroports :

Aéroport de Laval - Entrammes

Laval, France

latitude: 48-01-56N, longitude: 000-44-34W, altitude: 101 m

Observation

Le bulletin a été fait il y a 41 minutes, à 10:30 UTC
Vent 11 kt de ouest/sud-ouest
Température 9°C
Humidité 76%
Pression 996 hPa
Visibilité 10 km ou plus
Nuages épars à une hauteur de 1900 ft
Nuages fragmentés à une hauteur de 2400 ft
Nuages fragmentés à une hauteur de 2900 ft

METAR: LFOV 291030Z AUTO 25011KT 9999 SCT019 BKN024 BKN029 09/05 Q0996

Heure: 12:11 (11:11 UTC)


TAF: absent

Observations et prévisions météorologiques de plus de 4000 aéroports (messages METAR et TAF).

Les stations disponibles sont représentées par des disques jaunes et rouges sur la carte.

Passer la souris dessus pour voir le nom de la station.

Cliquer dessus pour voir les observations et prévisions météorologiques.

Pour changer de carte: cliquez sur les boutons verts avec une croix noire pour zoomer, sur le bouton vert avec un tiret pour effectuer un zoom arrière, ou sur les flèches vertes pour les cartes adjacentes.


METAR-TAF: